createdAt,value
2022-10-12T00:01:10.615Z,98261.63
2022-10-12T00:03:39.476Z,98264.47
2022-10-12T00:06:11.951Z,98264.63
2022-10-12T00:08:41.830Z,98257.63
2022-10-12T00:11:16.102Z,98257.78
2022-10-12T00:13:44.652Z,98259.75
2022-10-12T00:16:15.189Z,98256.56
2022-10-12T00:18:43.475Z,98262.91
2022-10-12T00:21:14.496Z,98258.56
2022-10-12T00:23:44.795Z,98257.72
2022-10-12T00:26:17.637Z,98260.53
2022-10-12T00:28:46.218Z,98254.50
2022-10-12T00:31:17.346Z,98251.03
2022-10-12T00:33:46.350Z,98257.34
2022-10-12T00:36:18.149Z,98252.16
2022-10-12T00:38:46.803Z,98251.19
2022-10-12T00:41:19.305Z,98255.00
2022-10-12T00:43:50.949Z,98249.50
2022-10-12T00:46:26.319Z,98252.16
2022-10-12T00:48:59.890Z,98255.69
2022-10-12T00:51:29.048Z,98254.81
2022-10-12T00:54:02.522Z,98249.66
2022-10-12T00:56:36.818Z,98251.50
2022-10-12T00:59:09.856Z,98256.00
2022-10-12T01:01:39.319Z,98253.31
2022-10-12T01:04:08.524Z,98250.66
2022-10-12T01:06:37.110Z,98250.81
2022-10-12T01:09:06.033Z,98255.31
2022-10-12T01:11:35.642Z,98255.47
2022-10-12T01:14:04.218Z,98247.56
2022-10-12T01:16:39.572Z,98247.91
2022-10-12T01:19:30.490Z,98247.06
2022-10-12T01:22:04.978Z,98242.72
2022-10-12T01:25:02.617Z,98243.03
2022-10-12T01:27:47.245Z,98248.53
2022-10-12T01:30:28.193Z,98245.19
2022-10-12T01:33:25.841Z,98243.34
2022-10-12T01:36:03.555Z,98244.19
2022-10-12T01:38:48.649Z,98242.38
2022-10-12T01:41:23.039Z,98243.34
2022-10-12T01:43:53.154Z,98247.88
2022-10-12T01:46:46.117Z,98246.16
2022-10-12T01:49:17.862Z,98246.16
2022-10-12T01:52:00.402Z,98236.50
2022-10-12T01:54:49.155Z,98232.16
2022-10-12T01:57:25.327Z,98232.97
2022-10-12T02:00:05.635Z,98230.47
2022-10-12T02:02:45.825Z,98231.31
2022-10-12T02:05:22.435Z,98230.31
2022-10-12T02:07:55.345Z,98227.66
2022-10-12T02:10:29.287Z,98224.00
2022-10-12T02:12:59.065Z,98223.84
2022-10-12T02:15:28.733Z,98209.66
2022-10-12T02:17:59.669Z,98227.19
2022-10-12T02:20:29.251Z,98225.34
2022-10-12T02:22:57.512Z,98234.22
2022-10-12T02:25:28.010Z,98234.22
2022-10-12T02:28:01.491Z,98230.53
2022-10-12T02:30:29.758Z,98229.53
2022-10-12T02:33:09.300Z,98221.84
2022-10-12T02:35:46.558Z,98232.19
2022-10-12T02:38:21.485Z,98227.72
2022-10-12T02:40:55.889Z,98223.22
2022-10-12T02:43:29.387Z,98229.38
2022-10-12T02:46:00.039Z,98231.06
2022-10-12T02:48:31.323Z,98227.41
2022-10-12T02:51:00.541Z,98222.06
2022-10-12T02:53:30.325Z,98224.72
2022-10-12T02:56:04.742Z,98219.38
2022-10-12T02:58:33.037Z,98217.56
2022-10-12T03:01:01.390Z,98205.38
2022-10-12T03:03:31.285Z,98219.22
2022-10-12T03:05:59.526Z,98214.75
2022-10-12T03:08:28.120Z,98214.06
2022-10-12T03:10:56.343Z,98215.06
2022-10-12T03:13:24.601Z,98220.56
2022-10-12T03:15:52.864Z,98218.19
2022-10-12T03:18:21.477Z,98210.50
2022-10-12T03:20:51.114Z,98219.50
2022-10-12T03:23:19.362Z,98222.47
2022-10-12T03:25:47.602Z,98223.63
2022-10-12T03:28:15.948Z,98223.13
2022-10-12T03:30:45.041Z,98223.44
2022-10-12T03:33:14.011Z,98225.41
2022-10-12T03:35:45.332Z,98225.72
2022-10-12T03:38:15.605Z,98216.22
2022-10-12T03:40:44.233Z,98224.53
2022-10-12T03:43:12.898Z,98215.16
2022-10-12T03:45:41.518Z,98221.81
2022-10-12T03:48:10.421Z,98224.78
2022-10-12T03:50:38.793Z,98214.59
2022-10-12T03:53:07.743Z,98209.56
2022-10-12T03:55:37.353Z,98223.19
2022-10-12T03:58:05.619Z,98219.03
2022-10-12T04:00:33.867Z,98221.84
2022-10-12T04:03:02.408Z,98224.66
2022-10-12T04:05:30.986Z,98228.31
2022-10-12T04:07:59.898Z,98230.31
2022-10-12T04:10:28.209Z,98229.44
2022-10-12T04:12:58.897Z,98228.63
2022-10-12T04:15:27.170Z,98227.78
2022-10-12T04:17:55.515Z,98230.59
2022-10-12T04:20:23.749Z,98225.44
2022-10-12T04:22:51.999Z,98223.63
2022-10-12T04:25:20.200Z,98226.28
2022-10-12T04:27:48.430Z,98226.28
2022-10-12T04:30:18.685Z,98224.44
2022-10-12T04:32:47.027Z,98228.78
2022-10-12T04:35:15.444Z,98230.59
2022-10-12T04:37:43.701Z,98225.28
2022-10-12T04:40:12.530Z,98225.97
2022-10-12T04:42:40.786Z,98234.78
2022-10-12T04:45:10.438Z,98231.16
2022-10-12T04:47:40.447Z,98232.81
2022-10-12T04:50:09.851Z,98240.81
2022-10-12T04:52:39.755Z,98239.97
2022-10-12T04:55:09.683Z,98241.47
2022-10-12T04:57:38.640Z,98246.81
2022-10-12T05:00:08.823Z,98242.31
2022-10-12T05:02:37.068Z,98234.31
2022-10-12T05:05:07.556Z,98240.66
2022-10-12T05:07:36.077Z,98234.31
2022-10-12T05:10:04.643Z,98237.84
2022-10-12T05:12:32.923Z,98228.16
2022-10-12T05:15:01.136Z,98221.00
2022-10-12T05:17:29.417Z,98223.66
2022-10-12T05:19:57.688Z,98222.66
2022-10-12T05:22:27.360Z,98225.47
2022-10-12T05:24:55.588Z,98227.84
2022-10-12T05:27:23.807Z,98229.69
2022-10-12T05:29:52.055Z,98227.16
2022-10-12T05:32:20.425Z,98237.84
2022-10-12T05:34:48.625Z,98232.66
2022-10-12T05:37:16.832Z,98234.47
2022-10-12T05:39:46.732Z,98229.44
2022-10-12T05:42:15.268Z,98235.63
2022-10-12T05:44:43.572Z,98237.59
2022-10-12T05:47:11.968Z,98237.59
2022-10-12T05:49:40.237Z,98236.78
2022-10-12T05:52:08.621Z,98241.28
2022-10-12T05:54:36.857Z,98231.59
2022-10-12T05:57:06.565Z,98239.59
2022-10-12T05:59:34.827Z,98237.09
2022-10-12T06:02:03.248Z,98237.09
2022-10-12T06:04:31.529Z,98236.94
2022-10-12T06:06:59.836Z,98232.06
2022-10-12T06:09:28.157Z,98240.72
2022-10-12T06:11:56.665Z,98239.06
2022-10-12T06:14:26.326Z,98245.25
2022-10-12T06:16:54.771Z,98240.56
2022-10-12T06:19:23.309Z,98247.75
2022-10-12T06:21:51.500Z,98258.41
2022-10-12T06:24:19.717Z,98259.22
2022-10-12T06:26:47.966Z,98263.59
2022-10-12T06:29:16.277Z,98261.75
2022-10-12T06:31:51.278Z,98262.44
2022-10-12T06:34:20.248Z,98264.25
2022-10-12T06:36:48.624Z,98264.94
2022-10-12T06:39:17.067Z,98265.66
2022-10-12T06:41:45.339Z,98268.97
2022-10-12T06:44:13.786Z,98272.34
2022-10-12T06:46:42.104Z,98272.03
2022-10-12T06:49:11.850Z,98276.22
2022-10-12T06:51:40.136Z,98272.22
2022-10-12T06:54:08.426Z,98279.63
2022-10-12T06:56:38.175Z,98286.19
2022-10-12T06:59:06.647Z,98282.75
2022-10-12T07:01:35.023Z,98285.44
2022-10-12T07:04:03.344Z,98295.19
2022-10-12T07:06:34.370Z,98283.91
2022-10-12T07:09:02.961Z,98287.75
2022-10-12T07:11:31.245Z,98292.34
2022-10-12T07:13:59.721Z,98285.56
2022-10-12T07:16:28.192Z,98289.28
2022-10-12T07:18:56.475Z,98291.16
2022-10-12T07:21:24.746Z,98293.03
2022-10-12T07:23:54.409Z,98297.41
2022-10-12T07:26:22.759Z,98293.63
2022-10-12T07:28:51.429Z,98285.31
2022-10-12T07:31:19.739Z,98286.53
2022-10-12T07:33:48.007Z,98285.94
2022-10-12T07:36:21.276Z,98285.84
2022-10-12T07:38:50.316Z,98285.84
2022-10-12T07:41:20.402Z,98282.84
2022-10-12T07:43:48.948Z,98285.22
2022-10-12T07:46:17.245Z,98285.22
2022-10-12T07:48:49.971Z,98279.88
2022-10-12T07:51:18.942Z,98278.19
2022-10-12T07:53:48.095Z,98286.00
2022-10-12T07:56:16.485Z,98281.44
2022-10-12T07:58:50.531Z,98286.56
2022-10-12T08:01:20.693Z,98281.81
2022-10-12T08:03:49.598Z,98288.78
2022-10-12T08:06:21.527Z,98281.63
2022-10-12T08:08:50.246Z,98288.59
2022-10-12T08:11:19.599Z,98279.44
2022-10-12T08:13:49.715Z,98291.72
2022-10-12T08:16:21.304Z,98290.59
2022-10-12T08:18:49.711Z,98292.09
2022-10-12T08:21:19.153Z,98285.56
2022-10-12T08:23:48.791Z,98281.88
2022-10-12T08:26:17.363Z,98282.75
2022-10-12T08:28:46.121Z,98283.19
2022-10-12T08:31:18.050Z,98287.00
2022-10-12T08:33:46.570Z,98277.69
2022-10-12T08:36:15.258Z,98282.66
2022-10-12T08:38:45.480Z,98289.13
2022-10-12T08:41:27.647Z,98283.28
2022-10-12T08:44:16.901Z,98287.59
2022-10-12T08:46:46.735Z,98283.63
2022-10-12T08:49:19.446Z,98278.09
2022-10-12T08:51:51.618Z,98277.34
2022-10-12T08:54:24.224Z,98273.28
2022-10-12T08:56:55.558Z,98270.66
2022-10-12T08:59:26.171Z,98265.72
2022-10-12T09:02:07.118Z,98273.81
2022-10-12T09:04:48.034Z,98266.53
2022-10-12T09:07:21.617Z,98268.22
2022-10-12T09:10:07.191Z,98276.91
2022-10-12T09:12:47.556Z,98275.06
2022-10-12T09:15:21.378Z,98269.88
2022-10-12T09:17:54.503Z,98274.41
2022-10-12T09:20:25.904Z,98266.97
2022-10-12T09:23:01.607Z,98273.22
2022-10-12T09:25:30.348Z,98281.97
2022-10-12T09:28:15.621Z,98275.97
2022-10-12T09:30:58.652Z,98281.03
2022-10-12T09:33:34.210Z,98271.34
2022-10-12T09:36:02.448Z,98275.97
2022-10-12T09:38:30.730Z,98272.28
2022-10-12T09:40:59.029Z,98275.63
2022-10-12T09:43:27.326Z,98271.69
2022-10-12T09:45:55.809Z,98274.84
2022-10-12T09:48:26.928Z,98274.78
2022-10-12T09:50:58.642Z,98272.28
2022-10-12T09:53:32.612Z,98265.59
2022-10-12T09:56:13.169Z,98266.03
2022-10-12T09:58:52.859Z,98266.03
2022-10-12T10:01:25.270Z,98263.97
2022-10-12T10:04:16.816Z,98262.31
2022-10-12T10:06:47.225Z,98256.09
2022-10-12T10:09:33.643Z,98255.91
2022-10-12T10:12:16.024Z,98262.78
2022-10-12T10:14:45.835Z,98264.25
2022-10-12T10:17:17.178Z,98257.00
2022-10-12T10:19:51.920Z,98254.69
2022-10-12T10:22:21.043Z,98254.50
2022-10-12T10:24:57.546Z,98257.81
2022-10-12T10:27:37.228Z,98252.84
2022-10-12T10:30:29.730Z,98257.63
2022-10-12T10:33:16.538Z,98248.28
2022-10-12T10:35:59.851Z,98242.28
2022-10-12T10:38:29.281Z,98252.09
2022-10-12T10:41:06.967Z,98249.63
2022-10-12T10:43:35.998Z,98255.84
2022-10-12T10:46:05.898Z,98247.16
2022-10-12T10:48:50.961Z,98244.69
2022-10-12T10:51:21.102Z,98241.56
2022-10-12T10:53:52.666Z,98242.59
2022-10-12T10:56:25.109Z,98245.31
2022-10-12T10:58:57.723Z,98243.47
2022-10-12T11:01:32.684Z,98237.44
2022-10-12T11:04:06.000Z,98235.56
2022-10-12T11:06:41.239Z,98222.44
2022-10-12T11:09:15.996Z,98226.78
2022-10-12T11:11:47.608Z,98232.34
2022-10-12T11:14:19.142Z,98232.78
2022-10-12T11:16:52.228Z,98230.84
2022-10-12T11:19:31.105Z,98232.13
2022-10-12T11:22:06.128Z,98225.03
2022-10-12T11:24:42.653Z,98226.91
2022-10-12T11:27:16.839Z,98228.16
2022-10-12T11:29:54.036Z,98229.41
2022-10-12T11:32:36.223Z,98228.63
2022-10-12T11:35:08.255Z,98226.78
2022-10-12T11:37:46.500Z,98229.44
2022-10-12T11:40:30.977Z,98218.66
2022-10-12T11:43:08.834Z,98220.97
2022-10-12T11:45:43.864Z,98219.13
2022-10-12T11:48:18.176Z,98223.72
2022-10-12T11:50:48.541Z,98217.47
2022-10-12T11:53:26.686Z,98222.50
2022-10-12T11:56:09.715Z,98219.13
2022-10-12T11:58:59.853Z,98222.47
2022-10-12T12:01:46.465Z,98212.91
2022-10-12T12:04:42.667Z,98221.84
2022-10-12T12:07:49.642Z,98216.03
2022-10-12T12:11:04.128Z,98209.78
2022-10-12T12:13:33.234Z,98209.56
2022-10-12T12:16:33.741Z,98205.00
2022-10-12T12:19:36.803Z,98198.31
2022-10-12T12:22:24.459Z,98205.19
2022-10-12T12:25:00.212Z,98200.84
2022-10-12T12:27:40.123Z,98201.25
2022-10-12T12:30:27.266Z,98198.09
2022-10-12T12:32:58.044Z,98200.19
2022-10-12T12:35:32.167Z,98201.38
2022-10-12T12:38:18.340Z,98199.72
2022-10-12T12:40:59.552Z,98202.00
2022-10-12T12:44:06.102Z,98205.94
2022-10-12T12:47:43.997Z,98201.16
2022-10-12T12:50:33.108Z,98201.56
2022-10-12T12:53:07.808Z,98188.47
2022-10-12T12:56:01.085Z,98193.69
2022-10-12T12:58:52.858Z,98192.03
2022-10-12T13:01:48.629Z,98190.53
2022-10-12T13:04:37.027Z,98193.44
2022-10-12T13:07:36.631Z,98194.06
2022-10-12T13:10:22.804Z,98193.44
2022-10-12T13:13:20.313Z,98196.97
2022-10-12T13:16:04.363Z,98189.47
2022-10-12T13:18:57.580Z,98181.56
2022-10-12T13:21:28.350Z,98191.75
2022-10-12T13:24:05.935Z,98185.13
2022-10-12T13:26:37.238Z,98186.34
2022-10-12T13:29:17.947Z,98175.94
2022-10-12T13:31:48.945Z,98173.84
2022-10-12T13:34:22.767Z,98173.25
2022-10-12T13:36:58.704Z,98172.59
2022-10-12T13:39:27.606Z,98175.31
2022-10-12T13:41:59.157Z,98171.16
2022-10-12T13:44:29.465Z,98172.16
2022-10-12T13:46:59.412Z,98174.06
2022-10-12T13:49:31.372Z,98172.56
2022-10-12T13:52:02.579Z,98171.75
2022-10-12T13:54:40.527Z,98172.16
2022-10-12T13:57:23.829Z,98169.88
2022-10-12T13:59:57.640Z,98163.16
2022-10-12T14:02:28.318Z,98162.16
2022-10-12T14:05:00.460Z,98157.16
2022-10-12T14:07:34.228Z,98160.06
2022-10-12T14:10:07.732Z,98156.72
2022-10-12T14:12:37.706Z,98150.88
2022-10-12T14:15:07.492Z,98158.38
2022-10-12T14:17:44.495Z,98153.56
2022-10-12T14:20:27.970Z,98153.78
2022-10-12T14:22:58.937Z,98155.00
2022-10-12T14:25:29.666Z,98155.22
2022-10-12T14:28:00.615Z,98150.03
2022-10-12T14:30:32.473Z,98152.28
2022-10-12T14:33:13.177Z,98156.00
2022-10-12T14:35:46.759Z,98154.72
2022-10-12T14:38:40.088Z,98154.91
2022-10-12T14:41:35.599Z,98150.31
2022-10-12T14:44:10.687Z,98151.72
2022-10-12T14:46:41.539Z,98156.50
2022-10-12T14:49:18.433Z,98146.09
2022-10-12T14:51:49.147Z,98152.31
2022-10-12T14:54:17.824Z,98149.41
2022-10-12T14:56:46.368Z,98147.94
2022-10-12T14:59:14.961Z,98152.03
2022-10-12T15:01:47.427Z,98145.38
2022-10-12T15:04:18.703Z,98149.47
2022-10-12T15:06:50.885Z,98139.31
2022-10-12T15:09:19.619Z,98143.19
2022-10-12T15:11:47.959Z,98140.09
2022-10-12T15:14:16.343Z,98130.72
2022-10-12T15:16:44.672Z,98139.19
2022-10-12T15:19:13.037Z,98135.22
2022-10-12T15:21:41.418Z,98133.56
2022-10-12T15:24:16.341Z,98131.47
2022-10-12T15:26:44.765Z,98137.25
2022-10-12T15:29:13.196Z,98136.16
2022-10-12T15:31:41.557Z,98131.19
2022-10-12T15:34:14.009Z,98145.22
2022-10-12T15:36:42.864Z,98135.03
2022-10-12T15:39:11.383Z,98139.13
2022-10-12T15:41:41.118Z,98137.84
2022-10-12T15:44:13.239Z,98139.28
2022-10-12T15:46:42.926Z,98135.28
2022-10-12T15:49:14.216Z,98134.84
2022-10-12T15:51:49.627Z,98134.94
2022-10-12T15:54:18.239Z,98134.47
2022-10-12T15:56:48.135Z,98136.09
2022-10-12T15:59:16.539Z,98133.97
2022-10-12T16:01:45.306Z,98132.25
2022-10-12T16:04:16.267Z,98132.81
2022-10-12T16:06:44.648Z,98129.88
2022-10-12T16:09:13.081Z,98127.09
2022-10-12T16:11:41.469Z,98133.91
2022-10-12T16:14:15.138Z,98132.16
2022-10-12T16:16:43.690Z,98132.06
2022-10-12T16:19:12.215Z,98138.19
2022-10-12T16:21:40.613Z,98140.16
2022-10-12T16:24:09.108Z,98139.84
2022-10-12T16:29:14.089Z,98137.19
2022-10-12T16:34:16.715Z,98144.88
2022-10-12T16:36:45.086Z,98151.19
2022-10-12T16:39:13.548Z,98150.06
2022-10-12T16:41:41.955Z,98147.28
2022-10-12T16:44:10.378Z,98149.03
2022-10-12T16:46:40.244Z,98152.47
2022-10-12T16:49:08.687Z,98148.63
2022-10-12T16:51:37.120Z,98151.06
2022-10-12T16:54:05.759Z,98155.66
2022-10-12T16:56:38.560Z,98155.72
2022-10-12T16:59:07.951Z,98162.81
2022-10-12T17:01:36.253Z,98169.53
2022-10-12T17:04:06.296Z,98179.34
2022-10-12T17:06:35.120Z,98180.03
2022-10-12T17:09:03.469Z,98178.94
2022-10-12T17:11:31.852Z,98175.31
2022-10-12T17:14:00.108Z,98182.19
2022-10-12T17:16:45.864Z,98180.88
2022-10-12T17:19:16.379Z,98191.66
2022-10-12T17:21:47.592Z,98192.84
2022-10-12T17:24:18.599Z,98188.69
2022-10-12T17:26:47.851Z,98189.22
2022-10-12T17:29:19.311Z,98187.69
2022-10-12T17:31:49.283Z,98190.72
2022-10-12T17:34:24.816Z,98188.56
2022-10-12T17:36:54.673Z,98190.78
2022-10-12T17:39:23.770Z,98198.50
2022-10-12T17:41:52.230Z,98190.16
2022-10-12T17:44:21.121Z,98188.81
2022-10-12T17:46:50.417Z,98185.84
2022-10-12T17:49:24.765Z,98190.88
2022-10-12T17:51:53.456Z,98190.38
2022-10-12T17:54:23.494Z,98195.28
2022-10-12T17:56:51.891Z,98196.97
2022-10-12T17:59:20.899Z,98198.16
2022-10-12T18:01:50.072Z,98187.97
2022-10-12T18:04:20.476Z,98194.84
2022-10-12T18:06:48.864Z,98197.19
2022-10-12T18:09:17.374Z,98199.56
2022-10-12T18:11:46.001Z,98198.41
2022-10-12T18:14:14.893Z,98207.78
2022-10-12T18:16:43.220Z,98204.94
2022-10-12T18:19:12.757Z,98203.44
2022-10-12T18:21:42.418Z,98204.78
2022-10-12T18:24:16.292Z,98195.72
2022-10-12T18:26:46.758Z,98204.78
2022-10-12T18:29:15.250Z,98198.09
2022-10-12T18:31:43.635Z,98204.81
2022-10-12T18:34:11.927Z,98207.31
2022-10-12T18:36:42.868Z,98204.13
2022-10-12T18:39:11.272Z,98210.66
2022-10-12T18:41:39.586Z,98210.31
2022-10-12T18:44:09.101Z,98220.69
2022-10-12T18:46:37.677Z,98209.66
2022-10-12T18:49:08.380Z,98219.84
2022-10-12T18:51:40.007Z,98205.16
2022-10-12T18:54:12.749Z,98209.16
2022-10-12T18:56:41.894Z,98211.31
2022-10-12T18:59:10.272Z,98211.00
2022-10-12T19:01:38.749Z,98211.50
2022-10-12T19:04:07.855Z,98213.66
2022-10-12T19:06:39.861Z,98207.16
2022-10-12T19:09:12.023Z,98212.81
2022-10-12T19:11:40.431Z,98214.13
2022-10-12T19:14:14.691Z,98205.59
2022-10-12T19:16:44.231Z,98211.44
2022-10-12T19:19:20.872Z,98212.25
2022-10-12T19:21:49.827Z,98201.88
2022-10-12T19:24:20.848Z,98209.38
2022-10-12T19:26:50.046Z,98211.56
2022-10-12T19:29:18.844Z,98217.22
2022-10-12T19:31:50.633Z,98209.72
2022-10-12T19:34:20.851Z,98214.38
2022-10-12T19:36:49.802Z,98213.84
2022-10-12T19:39:22.303Z,98206.47
2022-10-12T19:41:52.053Z,98211.16
2022-10-12T19:44:20.767Z,98203.81
2022-10-12T19:46:49.498Z,98210.44
2022-10-12T19:49:20.189Z,98206.44
2022-10-12T19:51:48.642Z,98214.06
2022-10-12T19:54:19.673Z,98212.41
2022-10-12T19:56:47.916Z,98219.75
2022-10-12T19:59:16.695Z,98220.91
2022-10-12T20:01:48.063Z,98223.72
2022-10-12T20:04:16.549Z,98230.59
2022-10-12T20:06:45.023Z,98228.75
2022-10-12T20:09:13.321Z,98232.25
2022-10-12T20:11:42.969Z,98224.25
2022-10-12T20:14:12.203Z,98233.09
2022-10-12T20:16:40.556Z,98230.28
2022-10-12T20:19:08.900Z,98228.44
2022-10-12T20:21:37.553Z,98232.59
2022-10-12T20:24:06.342Z,98229.28
2022-10-12T20:26:34.620Z,98236.44
2022-10-12T20:29:04.534Z,98237.44
2022-10-12T20:31:32.791Z,98234.94
2022-10-12T20:34:01.025Z,98238.59
2022-10-12T20:36:31.241Z,98233.44
2022-10-12T20:39:00.211Z,98228.91
2022-10-12T20:41:29.466Z,98237.75
2022-10-12T20:43:58.690Z,98236.25
2022-10-12T20:46:29.439Z,98232.75
2022-10-12T20:48:59.455Z,98235.41
2022-10-12T20:51:30.241Z,98239.25
2022-10-12T20:54:00.846Z,98237.38
2022-10-12T20:56:29.827Z,98231.25
2022-10-12T20:58:58.222Z,98230.56
2022-10-12T21:01:28.550Z,98235.88
2022-10-12T21:03:57.202Z,98232.53
2022-10-12T21:06:25.579Z,98222.00
2022-10-12T21:08:55.574Z,98226.53
2022-10-12T21:11:24.945Z,98218.84
2022-10-12T21:13:53.559Z,98214.63
2022-10-12T21:16:21.984Z,98214.81
2022-10-12T21:18:55.272Z,98211.63
2022-10-12T21:21:24.058Z,98212.75
2022-10-12T21:23:55.412Z,98205.03
2022-10-12T21:26:25.862Z,98212.41
2022-10-12T21:28:54.423Z,98210.03
2022-10-12T21:31:26.017Z,98213.19
2022-10-12T21:33:57.836Z,98215.31
2022-10-12T21:36:27.479Z,98211.31
2022-10-12T21:38:56.323Z,98200.94
2022-10-12T21:41:28.673Z,98202.09
2022-10-12T21:43:58.164Z,98206.91
2022-10-12T21:46:28.826Z,98208.22
2022-10-12T21:48:58.857Z,98210.34
2022-10-12T21:51:29.289Z,98208.00
2022-10-12T21:53:57.574Z,98207.47
2022-10-12T21:56:27.944Z,98210.44
2022-10-12T21:58:58.597Z,98201.94
2022-10-12T22:01:30.069Z,98213.72
2022-10-12T22:04:02.221Z,98214.03
2022-10-12T22:06:32.591Z,98225.56
2022-10-12T22:09:04.959Z,98223.03
2022-10-12T22:11:36.157Z,98210.88
2022-10-12T22:14:08.971Z,98215.66
2022-10-12T22:16:37.887Z,98209.47
2022-10-12T22:19:10.870Z,98212.34
2022-10-12T22:21:39.093Z,98214.00
2022-10-12T22:24:07.934Z,98218.47
2022-10-12T22:26:36.260Z,98213.16
2022-10-12T22:29:07.466Z,98209.66
2022-10-12T22:31:37.004Z,98206.00
2022-10-12T22:34:07.163Z,98205.00
2022-10-12T22:36:35.727Z,98201.19
2022-10-12T22:39:05.113Z,98200.22
2022-10-12T22:41:33.394Z,98193.03
2022-10-12T22:44:01.648Z,98198.19
2022-10-12T22:46:29.869Z,98191.75
2022-10-12T22:48:58.111Z,98188.06
2022-10-12T22:51:32.204Z,98191.44
2022-10-12T22:54:00.965Z,98202.09
2022-10-12T22:56:30.141Z,98185.09
2022-10-12T22:59:00.468Z,98192.94
2022-10-12T23:01:29.654Z,98192.78
2022-10-12T23:03:57.916Z,98194.44
2022-10-12T23:06:28.390Z,98184.78
2022-10-12T23:08:56.710Z,98186.28
2022-10-12T23:11:27.763Z,98189.13
2022-10-12T23:13:57.078Z,98191.47
2022-10-12T23:16:28.334Z,98189.81
2022-10-12T23:18:59.486Z,98188.81
2022-10-12T23:21:30.884Z,98187.13
2022-10-12T23:24:00.748Z,98194.13
2022-10-12T23:26:30.209Z,98185.16
2022-10-12T23:28:58.559Z,98180.66
2022-10-12T23:31:29.159Z,98173.34
2022-10-12T23:33:57.849Z,98184.69
2022-10-12T23:36:26.316Z,98173.03
2022-10-12T23:38:55.878Z,98170.19
2022-10-12T23:41:24.127Z,98176.38
2022-10-12T23:43:52.348Z,98167.38
2022-10-12T23:46:20.623Z,98168.88
2022-10-12T23:48:48.836Z,98166.22
2022-10-12T23:51:17.091Z,98163.22
2022-10-12T23:53:45.384Z,98171.06
2022-10-12T23:56:15.211Z,98171.06
2022-10-12T23:58:43.491Z,98176.25
